EZY51S EGKK-LICJ
Flight info
| Callsign | EZY51S |
|---|---|
| Flight time | N/A |
| Altitude | 23000 |
| Route | SFD Y47 BENBO L612 HAWKE/N0455F390 UL612 OGULO DCT OKASI DCT OKEKO DCT MOU DCT MADIV DCT MOKIP DCT TUFTA DCT KOGAS DCT MEDAM DCT NITAM DCT MOGBO DCT BAKRO DCT POKAV DCT BETOT DCT RUVIP DCT RONAB DCT GIANO |
| Aircraft | A20N/M-SDE2E3FGHIRWXY/LB1 |
Departure
| Time | 2026-05-05 13:05 |
|---|---|
| Airport | London Gatwick Airport (EGKK) |
Arrival
| Time | N/A |
|---|---|
| Airport | Falcone–Borsellino Airport (LICJ) |
| Time | Latitude | Longitude | Altitude | Speed | Heading |
|---|---|---|---|---|---|
| 2026-05-05 12:37 | 51.15590 | -0.17620 | 217 ft | 0 kts | 347° |
| 2026-05-05 12:56 | 51.15584 | -0.17618 | 207 ft | 1 kts | 347° |
| 2026-05-05 12:56 | 51.15576 | -0.17615 | 218 ft | 1 kts | 347° |
| 2026-05-05 12:56 | 51.15568 | -0.17612 | 217 ft | 1 kts | 341° |
| 2026-05-05 12:57 | 51.15559 | -0.17607 | 217 ft | 2 kts | 338° |
| 2026-05-05 12:57 | 51.15549 | -0.17600 | 215 ft | 2 kts | 333° |
| 2026-05-05 12:57 | 51.15540 | -0.17591 | 209 ft | 2 kts | 310° |
| 2026-05-05 12:57 | 51.15533 | -0.17575 | 219 ft | 2 kts | 298° |
| 2026-05-05 12:58 | 51.15531 | -0.17564 | 212 ft | 0 kts | 259° |
| 2026-05-05 13:00 | 51.15505 | -0.17749 | 207 ft | 16 kts | 258° |
| 2026-05-05 13:00 | 51.15481 | -0.17929 | 207 ft | 17 kts | 258° |
| 2026-05-05 13:01 | 51.15420 | -0.18264 | 209 ft | 8 kts | 210° |
| 2026-05-05 13:01 | 51.15360 | -0.18265 | 207 ft | 14 kts | 167° |
| 2026-05-05 13:01 | 51.15263 | -0.18231 | 212 ft | 15 kts | 168° |
| 2026-05-05 13:01 | 51.15189 | -0.18297 | 216 ft | 14 kts | 260° |
| 2026-05-05 13:02 | 51.15166 | -0.18476 | 215 ft | 19 kts | 257° |
| 2026-05-05 13:02 | 51.15136 | -0.18686 | 208 ft | 20 kts | 257° |
| 2026-05-05 13:02 | 51.15105 | -0.18908 | 209 ft | 21 kts | 258° |
| 2026-05-05 13:02 | 51.15075 | -0.19135 | 207 ft | 21 kts | 258° |
| 2026-05-05 13:03 | 51.15004 | -0.19270 | 211 ft | 15 kts | 206° |
| 2026-05-05 13:03 | 51.14941 | -0.19446 | 217 ft | 25 kts | 258° |
| 2026-05-05 13:03 | 51.14901 | -0.19727 | 213 ft | 26 kts | 260° |
| 2026-05-05 13:03 | 51.14861 | -0.20022 | 207 ft | 28 kts | 258° |
| 2026-05-05 13:04 | 51.14832 | -0.20229 | 211 ft | 30 kts | 257° |
| 2026-05-05 13:04 | 51.14787 | -0.20552 | 210 ft | 30 kts | 257° |
| 2026-05-05 13:04 | 51.14743 | -0.20875 | 209 ft | 26 kts | 258° |
| 2026-05-05 13:04 | 51.14650 | -0.20963 | 206 ft | 20 kts | 162° |
| 2026-05-05 13:05 | 51.14574 | -0.20809 | 208 ft | 18 kts | 91° |
| 2026-05-05 13:05 | 51.14627 | -0.20392 | 213 ft | 81 kts | 77° |
| 2026-05-05 13:05 | 51.14822 | -0.18992 | 352 ft | 164 kts | 77° |
| 2026-05-05 13:05 | 51.15100 | -0.17016 | 986 ft | 194 kts | 75° |
| 2026-05-05 13:06 | 51.15386 | -0.14959 | 1813 ft | 179 kts | 75° |
| 2026-05-05 13:06 | 51.15682 | -0.12928 | 2433 ft | 209 kts | 73° |
| 2026-05-05 13:06 | 51.16042 | -0.10557 | 3038 ft | 242 kts | 74° |
| 2026-05-05 13:06 | 51.16452 | -0.07910 | 4274 ft | 247 kts | 75° |
| 2026-05-05 13:07 | 51.16895 | -0.05250 | 5607 ft | 250 kts | 74° |
| 2026-05-05 13:07 | 51.17369 | -0.02520 | 6669 ft | 261 kts | 74° |
| 2026-05-05 13:07 | 51.17860 | 0.00271 | 7812 ft | 268 kts | 73° |
| 2026-05-05 13:07 | 51.18366 | 0.03188 | 8957 ft | 276 kts | 74° |
| 2026-05-05 13:08 | 51.18886 | 0.06176 | 10117 ft | 282 kts | 74° |
| 2026-05-05 13:08 | 51.19428 | 0.09285 | 10888 ft | 304 kts | 74° |
| 2026-05-05 13:08 | 51.20019 | 0.12683 | 11429 ft | 330 kts | 74° |
| 2026-05-05 13:08 | 51.20649 | 0.16286 | 12273 ft | 343 kts | 74° |
| 2026-05-05 13:09 | 51.21164 | 0.19827 | 13372 ft | 347 kts | 80° |
| 2026-05-05 13:09 | 51.21349 | 0.23683 | 14448 ft | 354 kts | 91° |
| 2026-05-05 13:09 | 51.20936 | 0.27597 | 15409 ft | 362 kts | 108° |
| 2026-05-05 13:09 | 51.19708 | 0.31137 | 16405 ft | 370 kts | 128° |
| 2026-05-05 13:10 | 51.17711 | 0.33740 | 17416 ft | 378 kts | 150° |
| 2026-05-05 13:10 | 51.15186 | 0.35028 | 18381 ft | 386 kts | 170° |
| 2026-05-05 13:10 | 51.12486 | 0.34954 | 19211 ft | 393 kts | 191° |
| 2026-05-05 13:10 | 51.09902 | 0.33480 | 20047 ft | 397 kts | 204° |
| 2026-05-05 13:11 | 51.07389 | 0.31601 | 20879 ft | 401 kts | 205° |
| 2026-05-05 13:11 | 51.04831 | 0.29768 | 21706 ft | 405 kts | 203° |
| 2026-05-05 13:11 | 51.02220 | 0.28019 | 22512 ft | 409 kts | 202° |
| 2026-05-05 13:11 | 50.99569 | 0.26327 | 23276 ft | 413 kts | 202° |
| 2026-05-05 13:12 | 50.96882 | 0.24661 | 23971 ft | 416 kts | 201° |
| 2026-05-05 13:12 | 50.94174 | 0.23009 | 24674 ft | 417 kts | 201° |
| 2026-05-05 13:12 | 50.91463 | 0.21372 | 25362 ft | 418 kts | 200° |
| 2026-05-05 13:12 | 50.88769 | 0.19755 | 25998 ft | 419 kts | 200° |
| 2026-05-05 13:13 | 50.86031 | 0.18119 | 26624 ft | 421 kts | 200° |
| 2026-05-05 13:13 | 50.83269 | 0.16473 | 27088 ft | 427 kts | 200° |
| 2026-05-05 13:13 | 50.80473 | 0.14811 | 27644 ft | 430 kts | 200° |
| 2026-05-05 13:13 | 50.77661 | 0.13140 | 28223 ft | 433 kts | 200° |